Time;durP1;ratioP1;P1;durP2;ratioP2;P2;SDS_P1;SDS_P2;PMS_P1;PMS_P2;Temp;Humidity;BMP_temperature;BMP_pressure;BME280_temperature;BME280_humidity;BME280_pressure;Samples;Min_cycle;Max_cycle;Signal;HPM_P1;HPM_P2
2024/01/15 00:01:24;;;;;;;;;44.00;34.33;;;;;;;;5067253;28;8799;-84
2024/01/15 00:03:52;;;;;;;;;54.67;43.33;;;;;;;;5066506;28;8967;-84
2024/01/15 00:06:20;;;;;;;;;45.00;39.00;;;;;;;;5069099;28;8901;-85
2024/01/15 00:08:47;;;;;;;;;50.67;43.00;;;;;;;;5068736;28;8857;-83
2024/01/15 00:11:14;;;;;;;;;55.33;43.00;;;;;;;;5069243;28;8948;-85
2024/01/15 00:13:42;;;;;;;;;44.67;38.67;;;;;;;;5067958;28;8935;-85
2024/01/15 00:16:10;;;;;;;;;51.00;42.00;;;;;;;;5062221;28;8996;-83
2024/01/15 00:18:38;;;;;;;;;37.33;35.33;;;;;;;;5065135;28;8981;-84
2024/01/15 00:21:06;;;;;;;;;54.67;43.00;;;;;;;;5073260;28;8854;-84
2024/01/15 00:23:35;;;;;;;;;51.33;42.33;;;;;;;;5072719;28;8863;-84
2024/01/15 00:26:02;;;;;;;;;46.33;40.67;;;;;;;;5062067;28;8850;-84
2024/01/15 00:28:29;;;;;;;;;49.33;42.00;;;;;;;;5069707;28;8867;-84
2024/01/15 00:30:57;;;;;;;;;47.33;41.67;;;;;;;;5074171;28;8821;-84
2024/01/15 00:33:24;;;;;;;;;46.67;41.00;;;;;;;;5076515;28;8884;-84
2024/01/15 00:35:53;;;;;;;;;46.67;40.67;;;;;;;;5078814;28;8866;-84
2024/01/15 00:38:20;;;;;;;;;44.67;43.33;;;;;;;;5077974;28;8959;-85
2024/01/15 00:40:48;;;;;;;;;54.67;45.67;;;;;;;;5069934;28;8896;-84
2024/01/15 00:43:18;;;;;;;;;51.00;43.00;;;;;;;;5076040;28;8839;-83
2024/01/15 00:45:45;;;;;;;;;47.00;40.33;;;;;;;;5081166;28;8838;-83
2024/01/15 00:48:12;;;;;;;;;46.33;41.67;;;;;;;;5081753;28;8867;-84
2024/01/15 00:50:40;;;;;;;;;52.33;41.67;;;;;;;;5083990;28;8866;-84
2024/01/15 00:53:08;;;;;;;;;50.33;42.00;;;;;;;;5076061;28;8855;-84
2024/01/15 00:55:39;;;;;;;;;44.67;40.67;;;;;;;;5072544;28;8864;-84
2024/01/15 00:58:07;;;;;;;;;46.33;41.67;;;;;;;;5073493;28;8867;-84
2024/01/15 01:00:34;;;;;;;;;56.33;46.33;;;;;;;;5064723;28;8786;-83
2024/01/15 01:03:01;;;;;;;;;52.67;44.33;;;;;;;;5071913;28;8855;-84
2024/01/15 01:05:29;;;;;;;;;40.67;40.00;;;;;;;;5072107;28;8854;-85
2024/01/15 01:07:56;;;;;;;;;54.00;44.33;;;;;;;;5067151;28;8943;-83
2024/01/15 01:10:25;;;;;;;;;49.67;39.67;;;;;;;;5062017;28;9012;-84
2024/01/15 01:12:52;;;;;;;;;44.00;42.33;;;;;;;;5070361;28;8870;-83
2024/01/15 01:15:19;;;;;;;;;51.67;43.67;;;;;;;;5072497;28;8863;-84
2024/01/15 01:17:47;;;;;;;;;56.00;44.33;;;;;;;;5061652;28;8858;-84
2024/01/15 01:20:15;;;;;;;;;44.67;41.33;;;;;;;;5073725;28;8863;-82
2024/01/15 01:22:42;;;;;;;;;45.67;38.33;;;;;;;;5073949;28;8954;-83
2024/01/15 01:25:10;;;;;;;;;54.33;44.67;;;;;;;;5069632;28;8883;-83
2024/01/15 01:27:38;;;;;;;;;50.00;45.67;;;;;;;;5074075;28;9613;-83
2024/01/15 01:30:07;;;;;;;;;46.00;37.67;;;;;;;;5068110;28;8873;-84
2024/01/15 01:32:35;;;;;;;;;51.00;41.67;;;;;;;;5070197;28;8863;-83
2024/01/15 01:35:02;;;;;;;;;38.67;37.00;;;;;;;;5070844;28;8862;-83
2024/01/15 01:37:29;;;;;;;;;45.33;40.33;;;;;;;;5071657;28;8870;-83
2024/01/15 01:39:56;;;;;;;;;35.67;35.67;;;;;;;;5070990;28;8843;-83
2024/01/15 01:42:24;;;;;;;;;44.33;41.67;;;;;;;;5071149;28;8893;-84
2024/01/15 01:44:52;;;;;;;;;46.33;40.33;;;;;;;;5069097;28;8850;-83
2024/01/15 01:47:20;;;;;;;;;37.67;36.00;;;;;;;;5071110;28;8866;-84
2024/01/15 01:49:47;;;;;;;;;52.00;41.00;;;;;;;;5070349;28;8861;-82
2024/01/15 01:52:15;;;;;;;;;50.67;41.33;;;;;;;;5069925;28;8862;-84
2024/01/15 01:54:43;;;;;;;;;33.67;31.67;;;;;;;;5070710;28;9772;-84
2024/01/15 01:57:11;;;;;;;;;52.00;41.00;;;;;;;;5068869;28;8871;-84
2024/01/15 01:59:38;;;;;;;;;45.67;40.33;;;;;;;;5070488;28;8843;-84
2024/01/15 02:02:08;;;;;;;;;43.67;41.00;;;;;;;;5070689;28;8799;-84
2024/01/15 02:04:36;;;;;;;;;47.67;39.67;;;;;;;;5070365;28;8846;-84
2024/01/15 02:07:04;;;;;;;;;53.00;42.33;;;;;;;;5070941;28;8996;-84
2024/01/15 02:09:32;;;;;;;;;41.00;39.67;;;;;;;;5070713;28;8866;-84
2024/01/15 02:12:02;;;;;;;;;48.00;43.33;;;;;;;;5070270;28;8866;-84
2024/01/15 02:14:29;;;;;;;;;52.67;42.33;;;;;;;;5066594;28;8914;-84
2024/01/15 02:16:56;;;;;;;;;45.33;41.33;;;;;;;;5054238;28;8980;-82
2024/01/15 02:19:27;;;;;;;;;47.33;39.33;;;;;;;;5073641;28;8974;-83
2024/01/15 02:21:55;;;;;;;;;34.00;29.67;;;;;;;;5076757;28;8839;-83
2024/01/15 02:24:24;;;;;;;;;54.00;41.33;;;;;;;;5075417;28;8867;-82
2024/01/15 02:26:51;;;;;;;;;49.00;43.33;;;;;;;;5069518;28;8900;-82
2024/01/15 02:29:19;;;;;;;;;53.00;43.00;;;;;;;;5069195;28;9771;-84
2024/01/15 02:31:46;;;;;;;;;46.00;40.67;;;;;;;;5066682;28;8904;-83
2024/01/15 02:34:13;;;;;;;;;50.00;43.67;;;;;;;;5072741;28;8859;-83
2024/01/15 02:36:41;;;;;;;;;56.00;45.33;;;;;;;;5069839;28;9626;-84
2024/01/15 02:39:08;;;;;;;;;48.33;40.67;;;;;;;;5073265;28;8867;-84
2024/01/15 02:41:39;;;;;;;;;52.67;46.00;;;;;;;;5070917;28;9692;-84
2024/01/15 02:44:06;;;;;;;;;50.00;42.33;;;;;;;;5070629;28;8863;-84
2024/01/15 02:46:33;;;;;;;;;53.33;44.33;;;;;;;;5066112;28;8855;-84
2024/01/15 02:49:01;;;;;;;;;57.67;47.33;;;;;;;;5069395;28;8890;-84
2024/01/15 02:51:28;;;;;;;;;49.33;44.33;;;;;;;;5066033;28;8835;-84
2024/01/15 02:53:55;;;;;;;;;45.00;41.00;;;;;;;;5069545;28;8932;-83
2024/01/15 02:56:22;;;;;;;;;46.00;40.33;;;;;;;;5069510;28;8901;-84
2024/01/15 02:58:51;;;;;;;;;51.67;42.67;;;;;;;;5070235;28;8908;-83
2024/01/15 03:01:20;;;;;;;;;55.00;45.67;;;;;;;;5070492;28;8799;-83
2024/01/15 03:03:47;;;;;;;;;49.67;42.67;;;;;;;;5072004;28;8858;-83
2024/01/15 03:06:14;;;;;;;;;52.00;44.00;;;;;;;;5071895;28;9688;-82
2024/01/15 03:08:42;;;;;;;;;53.00;42.33;;;;;;;;5069102;28;8887;-84
2024/01/15 03:11:09;;;;;;;;;55.67;42.67;;;;;;;;5068532;28;8877;-85
2024/01/15 03:13:39;;;;;;;;;48.67;40.00;;;;;;;;5067637;28;8979;-85
2024/01/15 03:16:11;;;;;;;;;56.00;45.00;;;;;;;;5068134;28;8847;-84
2024/01/15 03:18:39;;;;;;;;;45.67;42.33;;;;;;;;5068525;28;8885;-85
2024/01/15 03:21:06;;;;;;;;;51.00;41.33;;;;;;;;5069216;28;9671;-84
2024/01/15 03:23:37;;;;;;;;;44.67;39.67;;;;;;;;5068329;28;8877;-84
2024/01/15 03:26:05;;;;;;;;;41.67;39.67;;;;;;;;5052258;28;8883;-84
2024/01/15 03:28:32;;;;;;;;;47.00;43.00;;;;;;;;5053715;28;8959;-85
2024/01/15 03:30:59;;;;;;;;;48.67;40.67;;;;;;;;5068601;28;8861;-84
2024/01/15 03:33:28;;;;;;;;;42.33;36.33;;;;;;;;5069335;28;8855;-84
2024/01/15 03:35:56;;;;;;;;;38.33;36.00;;;;;;;;5069422;28;8874;-84
2024/01/15 03:38:24;;;;;;;;;47.33;43.00;;;;;;;;5069449;28;8915;-84
2024/01/15 03:40:51;;;;;;;;;50.00;40.67;;;;;;;;5069562;28;8882;-82
2024/01/15 03:43:21;;;;;;;;;57.33;45.33;;;;;;;;5068668;28;8855;-84
2024/01/15 03:45:48;;;;;;;;;49.67;42.33;;;;;;;;5069969;28;8927;-85
2024/01/15 03:48:16;;;;;;;;;43.33;41.33;;;;;;;;5083478;28;8927;-82
2024/01/15 03:50:44;;;;;;;;;47.33;44.00;;;;;;;;5093424;28;8878;-83
2024/01/15 03:53:11;;;;;;;;;61.00;44.67;;;;;;;;5072022;28;8963;-83
2024/01/15 03:55:39;;;;;;;;;49.33;41.67;;;;;;;;5073992;28;8858;-83
2024/01/15 03:58:06;;;;;;;;;50.00;45.00;;;;;;;;5075379;28;8981;-84
2024/01/15 04:00:33;;;;;;;;;61.00;47.00;;;;;;;;5074992;28;8749;-84
2024/01/15 04:03:01;;;;;;;;;47.33;41.00;;;;;;;;5077401;28;8970;-83
2024/01/15 04:05:30;;;;;;;;;41.00;34.67;;;;;;;;5079212;28;8843;-83
2024/01/15 04:07:59;;;;;;;;;46.33;40.00;;;;;;;;5079825;28;8850;-84
2024/01/15 04:10:29;;;;;;;;;41.67;41.00;;;;;;;;5080404;28;8920;-84
2024/01/15 04:13:04;;;;;;;;;56.00;46.00;;;;;;;;5078379;28;8885;-85
2024/01/15 04:15:31;;;;;;;;;47.00;41.33;;;;;;;;5068309;28;8859;-84
2024/01/15 04:17:59;;;;;;;;;45.00;40.33;;;;;;;;5073418;28;8977;-84
2024/01/15 04:20:26;;;;;;;;;48.67;36.67;;;;;;;;5071762;28;8869;-84
2024/01/15 04:22:53;;;;;;;;;53.33;42.33;;;;;;;;5073547;28;8831;-84
2024/01/15 04:25:22;;;;;;;;;37.00;35.33;;;;;;;;5076852;28;8881;-85
2024/01/15 04:27:50;;;;;;;;;48.33;39.67;;;;;;;;5073887;28;8867;-85
2024/01/15 04:30:17;;;;;;;;;39.67;33.00;;;;;;;;5069590;28;8847;-84
2024/01/15 04:32:44;;;;;;;;;46.00;42.00;;;;;;;;5066485;28;8861;-84
2024/01/15 04:35:12;;;;;;;;;43.00;38.00;;;;;;;;5062492;28;8862;-84
2024/01/15 04:37:40;;;;;;;;;50.00;43.00;;;;;;;;5070951;28;8948;-84
2024/01/15 04:40:08;;;;;;;;;45.00;38.33;;;;;;;;5072477;28;8947;-84
2024/01/15 04:42:37;;;;;;;;;42.67;41.00;;;;;;;;5069511;28;9668;-84
2024/01/15 04:45:05;;;;;;;;;23.00;23.00;;;;;;;;5073679;28;8861;-85
2024/01/15 04:47:32;;;;;;;;;51.67;44.00;;;;;;;;5069186;28;8974;-85
2024/01/15 04:50:00;;;;;;;;;46.00;41.33;;;;;;;;5072510;28;8982;-84
2024/01/15 04:52:32;;;;;;;;;47.33;43.67;;;;;;;;5069625;28;8851;-83
2024/01/15 04:54:59;;;;;;;;;39.67;39.33;;;;;;;;5071869;28;8973;-85
2024/01/15 04:57:27;;;;;;;;;41.33;39.33;;;;;;;;5071184;28;8889;-86
2024/01/15 04:59:55;;;;;;;;;53.33;41.00;;;;;;;;5072202;28;8883;-84
2024/01/15 05:02:23;;;;;;;;;33.67;31.33;;;;;;;;5068459;28;11545;-83
2024/01/15 05:04:50;;;;;;;;;48.67;40.67;;;;;;;;5067735;28;8978;-83
2024/01/15 05:07:17;;;;;;;;;36.67;32.33;;;;;;;;5076890;28;8879;-83
2024/01/15 05:09:47;;;;;;;;;30.00;29.00;;;;;;;;5070858;28;8866;-83
2024/01/15 05:12:14;;;;;;;;;42.00;38.33;;;;;;;;5070251;28;8866;-82
2024/01/15 05:14:42;;;;;;;;;41.67;35.33;;;;;;;;5069679;28;8857;-83
2024/01/15 05:17:10;;;;;;;;;44.33;41.33;;;;;;;;5071548;28;8847;-85
2024/01/15 05:19:38;;;;;;;;;45.33;40.33;;;;;;;;5070663;28;8879;-82
2024/01/15 05:22:05;;;;;;;;;42.67;35.67;;;;;;;;5071138;28;8981;-82
2024/01/15 05:24:32;;;;;;;;;44.67;37.33;;;;;;;;5066899;28;8833;-82
2024/01/15 05:26:59;;;;;;;;;40.67;36.33;;;;;;;;5070023;28;8859;-85
2024/01/15 05:29:27;;;;;;;;;36.33;33.33;;;;;;;;5068999;28;11588;-86
2024/01/15 05:31:56;;;;;;;;;30.67;27.00;;;;;;;;5070117;28;11585;-86
2024/01/15 05:34:28;;;;;;;;;38.00;32.67;;;;;;;;5056948;28;11729;-87
2024/01/15 05:36:55;;;;;;;;;37.00;31.67;;;;;;;;5071645;28;8867;-81
2024/01/15 05:39:26;;;;;;;;;45.67;39.00;;;;;;;;5070332;28;11690;-82
2024/01/15 05:41:54;;;;;;;;;38.00;34.00;;;;;;;;5071883;28;11592;-83
2024/01/15 05:44:23;;;;;;;;;37.67;36.00;;;;;;;;5066713;28;11600;-81
2024/01/15 05:46:54;;;;;;;;;44.33;39.00;;;;;;;;5072293;28;11585;-83
2024/01/15 05:49:22;;;;;;;;;34.00;33.00;;;;;;;;5074422;28;11654;-85
2024/01/15 05:51:51;;;;;;;;;44.67;34.67;;;;;;;;5071282;28;11614;-84
2024/01/15 05:54:20;;;;;;;;;43.33;34.00;;;;;;;;5076002;28;11582;-84
2024/01/15 05:56:49;;;;;;;;;36.33;31.33;;;;;;;;5075230;28;12062;-84
2024/01/15 05:59:16;;;;;;;;;47.33;37.67;;;;;;;;5067214;28;11578;-84
2024/01/15 06:01:44;;;;;;;;;34.33;32.00;;;;;;;;5064481;28;11554;-83
2024/01/15 06:04:11;;;;;;;;;46.67;38.67;;;;;;;;5067365;28;11684;-85
2024/01/15 06:06:38;;;;;;;;;48.00;35.33;;;;;;;;5058902;28;11601;-87
2024/01/15 06:09:08;;;;;;;;;34.33;28.67;;;;;;;;5070007;28;12402;-78
2024/01/15 06:11:36;;;;;;;;;31.67;26.33;;;;;;;;5070039;28;11600;-77
2024/01/15 06:14:03;;;;;;;;;41.33;34.67;;;;;;;;5062855;28;11672;-75
2024/01/15 06:16:30;;;;;;;;;43.00;37.33;;;;;;;;5068779;28;11557;-75
2024/01/15 06:18:58;;;;;;;;;38.67;28.33;;;;;;;;5061027;28;12415;-76
2024/01/15 06:21:27;;;;;;;;;33.00;33.00;;;;;;;;5059591;28;11599;-78
2024/01/15 06:23:56;;;;;;;;;43.33;40.33;;;;;;;;5061139;28;11623;-76
2024/01/15 06:26:24;;;;;;;;;40.33;34.33;;;;;;;;5067860;28;11676;-76
2024/01/15 06:28:51;;;;;;;;;32.33;27.67;;;;;;;;5060774;28;11602;-78
2024/01/15 06:31:19;;;;;;;;;40.50;32.25;;;;;;;;5067208;28;11520;-75
2024/01/15 06:33:48;;;;;;;;;41.33;34.00;;;;;;;;5059137;28;11649;-76
2024/01/15 06:36:16;;;;;;;;;29.50;26.75;;;;;;;;5069258;28;11609;-76
2024/01/15 06:38:44;;;;;;;;;43.25;34.00;;;;;;;;5071279;28;11593;-75
2024/01/15 06:41:14;;;;;;;;;33.75;32.00;;;;;;;;5070570;28;12397;-76
2024/01/15 06:43:43;;;;;;;;;43.00;36.00;;;;;;;;5068988;28;12384;-75
2024/01/15 06:46:10;;;;;;;;;41.00;34.25;;;;;;;;5066865;28;11585;-75
2024/01/15 06:48:37;;;;;;;;;41.50;36.50;;;;;;;;5069118;28;11611;-74
2024/01/15 06:51:05;;;;;;;;;33.00;27.75;;;;;;;;5073207;28;11577;-74
2024/01/15 06:53:32;;;;;;;;;29.25;29.25;;;;;;;;5064889;28;12441;-77
2024/01/15 06:55:59;;;;;;;;;29.50;29.50;;;;;;;;5068136;28;11576;-76
2024/01/15 06:58:26;;;;;;;;;33.75;31.00;;;;;;;;5066200;28;11697;-76
2024/01/15 07:00:55;;;;;;;;;41.75;39.00;;;;;;;;5066453;28;11550;-75
2024/01/15 07:03:22;;;;;;;;;32.50;32.25;;;;;;;;5066591;28;11732;-75
2024/01/15 07:05:49;;;;;;;;;36.25;31.75;;;;;;;;5068158;28;11722;-79
2024/01/15 07:08:17;;;;;;;;;35.50;30.50;;;;;;;;5065980;28;12306;-77
2024/01/15 07:10:44;;;;;;;;;38.00;30.75;;;;;;;;5066454;28;11571;-77
2024/01/15 07:13:11;;;;;;;;;33.00;30.67;;;;;;;;5066298;28;11594;-78
2024/01/15 07:15:40;;;;;;;;;42.33;34.33;;;;;;;;5067860;28;11708;-78
2024/01/15 07:18:09;;;;;;;;;48.00;40.00;;;;;;;;5066154;28;11994;-77
2024/01/15 07:20:36;;;;;;;;;30.00;29.00;;;;;;;;5067165;28;12062;-77
2024/01/15 07:23:04;;;;;;;;;47.67;39.33;;;;;;;;5067645;28;11596;-79
2024/01/15 07:25:31;;;;;;;;;37.33;35.33;;;;;;;;5067953;28;11570;-79
2024/01/15 07:27:58;;;;;;;;;40.33;33.33;;;;;;;;5066358;28;11627;-77
2024/01/15 07:30:28;;;;;;;;;41.00;37.00;;;;;;;;5067609;28;11492;-79
2024/01/15 07:32:55;;;;;;;;;42.00;34.33;;;;;;;;5067099;28;11545;-79
2024/01/15 07:35:24;;;;;;;;;45.00;40.00;;;;;;;;5068496;28;11714;-76
2024/01/15 07:37:51;;;;;;;;;42.33;33.00;;;;;;;;5068788;28;11665;-79
2024/01/15 07:40:19;;;;;;;;;40.67;39.33;;;;;;;;5072057;28;11620;-78
2024/01/15 07:42:47;;;;;;;;;31.67;27.33;;;;;;;;5070900;28;11998;-77
2024/01/15 07:45:14;;;;;;;;;58.33;40.67;;;;;;;;5072970;28;11584;-79
2024/01/15 07:47:41;;;;;;;;;40.33;36.00;;;;;;;;5071755;28;11580;-77
2024/01/15 07:50:09;;;;;;;;;44.00;41.00;;;;;;;;5072378;28;11567;-79
2024/01/15 07:52:37;;;;;;;;;36.00;36.00;;;;;;;;5071373;28;8863;-77
2024/01/15 07:55:05;;;;;;;;;36.67;31.67;;;;;;;;5059684;28;11570;-78
2024/01/15 07:57:32;;;;;;;;;36.33;35.33;;;;;;;;5066673;28;11593;-80
2024/01/15 08:00:03;;;;;;;;;43.33;37.67;;;;;;;;5057108;28;11693;-77
2024/01/15 08:02:31;;;;;;;;;33.00;30.00;;;;;;;;5061748;28;11552;-77
2024/01/15 08:04:59;;;;;;;;;36.33;36.33;;;;;;;;5051618;28;11549;-75
2024/01/15 08:07:33;;;;;;;;;40.33;34.33;;;;;;;;5061947;28;11586;-76
2024/01/15 08:10:02;;;;;;;;;42.00;33.75;;;;;;;;5063581;28;11698;-76
2024/01/15 08:12:33;;;;;;;;;29.50;28.75;;;;;;;;5066059;28;11683;-75
2024/01/15 08:15:00;;;;;;;;;33.50;23.50;;;;;;;;5066890;28;11636;-76
2024/01/15 08:17:28;;;;;;;;;29.75;27.50;;;;;;;;5067535;28;11553;-75
2024/01/15 08:19:56;;;;;;;;;26.50;25.25;;;;;;;;5065345;28;11566;-78
2024/01/15 08:22:23;;;;;;;;;26.25;23.75;;;;;;;;5060064;28;11585;-77
2024/01/15 08:24:51;;;;;;;;;26.25;25.50;;;;;;;;5056697;28;11587;-77
2024/01/15 08:27:19;;;;;;;;;28.75;25.50;;;;;;;;5070286;28;11653;-75
2024/01/15 08:29:47;;;;;;;;;24.75;19.00;;;;;;;;5057209;28;11598;-79
2024/01/15 08:32:15;;;;;;;;;24.50;22.50;;;;;;;;5067978;28;11663;-77
2024/01/15 08:34:42;;;;;;;;;25.75;21.50;;;;;;;;5066650;28;11582;-75
2024/01/15 08:37:10;;;;;;;;;26.75;22.75;;;;;;;;5067745;28;11548;-77
2024/01/15 08:39:38;;;;;;;;;36.00;32.50;;;;;;;;5068281;28;11721;-77
2024/01/15 08:42:06;;;;;;;;;39.50;32.75;;;;;;;;5070718;28;11571;-75
2024/01/15 08:44:34;;;;;;;;;28.25;25.75;;;;;;;;5069154;28;11564;-77
2024/01/15 08:47:02;;;;;;;;;42.50;32.75;;;;;;;;5070784;28;11577;-76
2024/01/15 08:49:30;;;;;;;;;32.25;24.75;;;;;;;;5058150;28;11706;-77
2024/01/15 08:51:57;;;;;;;;;39.00;31.50;;;;;;;;5070145;28;11695;-76
2024/01/15 08:54:24;;;;;;;;;35.75;31.00;;;;;;;;5070476;28;11602;-76
2024/01/15 08:56:52;;;;;;;;;30.25;27.00;;;;;;;;5068867;28;11946;-75
2024/01/15 08:59:24;;;;;;;;;31.50;26.75;;;;;;;;5069674;28;11635;-75
2024/01/15 09:01:53;;;;;;;;;32.50;28.00;;;;;;;;5069443;28;11625;-77
2024/01/15 09:04:20;;;;;;;;;31.75;31.75;;;;;;;;5070024;28;11566;-79
2024/01/15 09:06:47;;;;;;;;;36.25;30.75;;;;;;;;5070236;28;11668;-77
2024/01/15 09:09:15;;;;;;;;;35.00;32.25;;;;;;;;5069843;28;11597;-75
2024/01/15 09:11:42;;;;;;;;;37.00;34.00;;;;;;;;5066475;28;11579;-77
2024/01/15 09:14:09;;;;;;;;;33.75;26.75;;;;;;;;5050772;28;11698;-75
2024/01/15 09:16:36;;;;;;;;;34.00;28.50;;;;;;;;5063266;28;11715;-76
2024/01/15 09:19:05;;;;;;;;;24.25;24.25;;;;;;;;5051375;28;11601;-79
2024/01/15 09:21:32;;;;;;;;;26.25;26.25;;;;;;;;5068491;28;11635;-75
2024/01/15 09:23:59;;;;;;;;;26.00;22.50;;;;;;;;5071045;28;11595;-77
2024/01/15 09:26:29;;;;;;;;;19.50;15.75;;;;;;;;5072638;28;11696;-80
2024/01/15 09:28:56;;;;;;;;;26.50;23.00;;;;;;;;5061962;28;11602;-78
2024/01/15 09:31:23;;;;;;;;;22.50;22.50;;;;;;;;5055395;28;11518;-76
2024/01/15 09:33:55;;;;;;;;;21.00;18.25;;;;;;;;5067371;28;11607;-77
2024/01/15 09:36:25;;;;;;;;;21.25;21.25;;;;;;;;5077330;28;11665;-79
2024/01/15 09:38:52;;;;;;;;;20.00;20.00;;;;;;;;5076987;28;11556;-76
2024/01/15 09:41:22;;;;;;;;;15.25;10.50;;;;;;;;5075751;28;11582;-79
2024/01/15 09:43:50;;;;;;;;;26.00;22.50;;;;;;;;5075894;28;11596;-75
2024/01/15 09:46:17;;;;;;;;;22.00;20.75;;;;;;;;5071918;28;11612;-74
2024/01/15 09:48:45;;;;;;;;;25.00;19.50;;;;;;;;5068810;28;11594;-74
2024/01/15 09:51:12;;;;;;;;;18.25;18.25;;;;;;;;5063202;28;11010;-75
2024/01/15 09:53:41;;;;;;;;;17.00;15.00;;;;;;;;5057339;28;11561;-76
2024/01/15 09:56:10;;;;;;;;;18.50;17.75;;;;;;;;5070853;28;11552;-77
2024/01/15 09:58:37;;;;;;;;;14.00;11.75;;;;;;;;5062791;28;11576;-75
2024/01/15 10:01:04;;;;;;;;;13.75;10.50;;;;;;;;5064938;28;11527;-75
2024/01/15 10:03:31;;;;;;;;;15.75;11.25;;;;;;;;5064994;28;11526;-75
2024/01/15 10:06:01;;;;;;;;;10.25;10.25;;;;;;;;5069138;28;11565;-75
2024/01/15 10:08:32;;;;;;;;;7.50;7.50;;;;;;;;5065884;28;11531;-76
2024/01/15 10:11:01;;;;;;;;;13.25;9.75;;;;;;;;5068110;28;12392;-77
2024/01/15 10:13:31;;;;;;;;;7.00;5.50;;;;;;;;5064247;28;11538;-77
2024/01/15 10:15:59;;;;;;;;;7.00;6.00;;;;;;;;5063444;28;11528;-76
2024/01/15 10:18:26;;;;;;;;;5.00;5.00;;;;;;;;5068870;28;11501;-75
2024/01/15 10:20:54;;;;;;;;;3.50;3.50;;;;;;;;5070211;28;12319;-75
2024/01/15 10:23:21;;;;;;;;;4.50;4.50;;;;;;;;5068401;28;12381;-76
2024/01/15 10:25:48;;;;;;;;;3.00;3.00;;;;;;;;5068501;28;11535;-74
2024/01/15 10:28:17;;;;;;;;;2.75;2.75;;;;;;;;5068763;28;12216;-76
2024/01/15 10:30:44;;;;;;;;;1.25;1.25;;;;;;;;5067480;28;11456;-74
2024/01/15 10:33:11;;;;;;;;;1.00;1.00;;;;;;;;5058547;28;11616;-76
2024/01/15 10:35:39;;;;;;;;;2.00;2.00;;;;;;;;5061923;28;11579;-77
2024/01/15 10:38:07;;;;;;;;;1.00;1.00;;;;;;;;5068292;28;11540;-79
2024/01/15 10:40:37;;;;;;;;;0.00;0.00;;;;;;;;5068028;28;11435;-75
2024/01/15 10:43:04;;;;;;;;;2.00;1.00;;;;;;;;5056460;28;11455;-75
2024/01/15 10:45:33;;;;;;;;;1.00;1.00;;;;;;;;5068441;28;11438;-75
2024/01/15 10:48:02;;;;;;;;;0.75;0.75;;;;;;;;5068328;28;11428;-76
2024/01/15 10:50:31;;;;;;;;;0.00;0.00;;;;;;;;5068097;28;11440;-76
2024/01/15 10:52:58;;;;;;;;;0.00;0.00;;;;;;;;5068344;28;11467;-77
2024/01/15 10:55:30;;;;;;;;;1.00;1.00;;;;;;;;5067304;28;11420;-77
2024/01/15 10:57:59;;;;;;;;;0.75;0.75;;;;;;;;5068640;28;11461;-76
2024/01/15 11:00:26;;;;;;;;;0.00;0.00;;;;;;;;5067447;28;12063;-79
2024/01/15 11:02:55;;;;;;;;;1.75;1.00;;;;;;;;5068688;28;11446;-78
2024/01/15 11:05:23;;;;;;;;;1.50;0.00;;;;;;;;5068053;28;11458;-78
2024/01/15 11:07:50;;;;;;;;;2.50;0.25;;;;;;;;5068227;28;11531;-78
2024/01/15 11:10:48;;;;;;;;;1.25;1.25;;;;;;;;5067615;28;11577;-78
2024/01/15 11:13:16;;;;;;;;;0.50;0.50;;;;;;;;5055700;28;11417;-80
2024/01/15 11:16:00;;;;;;;;;0.75;0.75;;;;;;;;5067134;28;11443;-82
2024/01/15 11:18:30;;;;;;;;;1.00;1.00;;;;;;;;5068615;28;11426;-74
2024/01/15 11:21:23;;;;;;;;;3.00;2.00;;;;;;;;5070301;28;11453;-76
2024/01/15 11:23:51;;;;;;;;;0.00;0.00;;;;;;;;5057206;28;11471;-76
2024/01/15 11:26:36;;;;;;;;;2.75;2.75;;;;;;;;5062424;28;11458;-79
2024/01/15 11:29:05;;;;;;;;;0.00;0.00;;;;;;;;5069892;28;11569;-77
2024/01/15 11:32:00;;;;;;;;;1.00;1.00;;;;;;;;5062682;28;11389;-77
2024/01/15 11:35:01;;;;;;;;;0.75;0.75;;;;;;;;5066539;28;11427;-78
2024/01/15 11:37:30;;;;;;;;;0.00;0.00;;;;;;;;5067770;28;11597;-77
2024/01/15 11:40:00;;;;;;;;;0.00;0.00;;;;;;;;5069510;28;11455;-74
2024/01/15 11:42:28;;;;;;;;;2.00;2.00;;;;;;;;5065018;28;11553;-79
2024/01/15 11:44:55;;;;;;;;;1.75;1.75;;;;;;;;5066884;28;11542;-76
2024/01/15 11:47:53;;;;;;;;;0.00;0.00;;;;;;;;5065374;28;11539;-79
2024/01/15 11:50:23;;;;;;;;;1.00;1.00;;;;;;;;5066013;28;11434;-77
2024/01/15 11:53:00;;;;;;;;;0.00;0.00;;;;;;;;5067620;28;11436;-74
2024/01/15 11:55:34;;;;;;;;;0.00;0.00;;;;;;;;5067442;28;11426;-75
2024/01/15 11:58:03;;;;;;;;;1.00;0.00;;;;;;;;5067920;28;11212;-76
2024/01/15 12:00:30;;;;;;;;;0.00;0.00;;;;;;;;5064564;28;11940;-78
2024/01/15 12:03:02;;;;;;;;;2.00;0.25;;;;;;;;5067726;28;12363;-77
2024/01/15 12:05:30;;;;;;;;;0.00;0.00;;;;;;;;5068913;28;11546;-76
2024/01/15 12:07:57;;;;;;;;;2.00;2.00;;;;;;;;5070437;28;11450;-77
2024/01/15 12:10:27;;;;;;;;;1.75;0.00;;;;;;;;5069878;28;11434;-76
2024/01/15 12:13:00;;;;;;;;;0.00;0.00;;;;;;;;5067723;28;11046;-76
2024/01/15 12:15:29;;;;;;;;;0.00;0.00;;;;;;;;5071786;28;11019;-76
2024/01/15 12:17:57;;;;;;;;;0.75;0.75;;;;;;;;5071567;28;11056;-77
2024/01/15 12:20:26;;;;;;;;;0.00;0.00;;;;;;;;5070250;28;11043;-79
2024/01/15 12:22:55;;;;;;;;;0.00;0.00;;;;;;;;5070385;28;10958;-76
2024/01/15 12:25:23;;;;;;;;;0.00;0.00;;;;;;;;5071513;28;11157;-77
2024/01/15 12:27:50;;;;;;;;;0.00;0.00;;;;;;;;5071266;28;10947;-77
2024/01/15 12:30:19;;;;;;;;;0.00;0.00;;;;;;;;5071384;28;11101;-76
2024/01/15 12:32:47;;;;;;;;;0.00;0.00;;;;;;;;5070426;28;11142;-79
2024/01/15 12:35:15;;;;;;;;;0.00;0.00;;;;;;;;5062972;28;11063;-77
2024/01/15 12:37:44;;;;;;;;;0.00;0.00;;;;;;;;5070988;28;11284;-78
2024/01/15 12:40:12;;;;;;;;;0.00;0.00;;;;;;;;5070277;28;10942;-76
2024/01/15 12:42:41;;;;;;;;;0.00;0.00;;;;;;;;5069689;28;10972;-79
2024/01/15 12:45:10;;;;;;;;;0.00;0.00;;;;;;;;5070257;28;11771;-75
2024/01/15 12:47:37;;;;;;;;;0.00;0.00;;;;;;;;5070329;28;10931;-77
2024/01/15 12:50:08;;;;;;;;;0.00;0.00;;;;;;;;5071010;28;10875;-79
2024/01/15 12:52:37;;;;;;;;;0.00;0.00;;;;;;;;5070104;28;10877;-78
2024/01/15 12:55:05;;;;;;;;;0.00;0.00;;;;;;;;5070978;28;10897;-77
2024/01/15 12:57:35;;;;;;;;;2.00;0.00;;;;;;;;5070178;28;10719;-78
2024/01/15 13:00:02;;;;;;;;;2.00;0.00;;;;;;;;5068351;28;10768;-79
2024/01/15 13:02:29;;;;;;;;;0.00;0.00;;;;;;;;5059298;28;10703;-76
2024/01/15 13:05:04;;;;;;;;;0.00;0.00;;;;;;;;5070529;28;10880;-79
2024/01/15 13:07:31;;;;;;;;;0.00;0.00;;;;;;;;5062836;28;10893;-77
2024/01/15 13:09:58;;;;;;;;;0.00;0.00;;;;;;;;5074070;28;10904;-80
2024/01/15 13:12:25;;;;;;;;;0.00;0.00;;;;;;;;5068810;28;10993;-81
2024/01/15 13:14:54;;;;;;;;;0.50;0.00;;;;;;;;5074701;28;11124;-79
2024/01/15 13:17:21;;;;;;;;;0.00;0.00;;;;;;;;5074437;28;10912;-80
2024/01/15 13:19:49;;;;;;;;;0.00;0.00;;;;;;;;5073174;28;11022;-78
2024/01/15 13:22:16;;;;;;;;;0.25;0.25;;;;;;;;5063654;28;11763;-79
2024/01/15 13:24:45;;;;;;;;;1.00;1.00;;;;;;;;5069332;28;10954;-77
2024/01/15 13:27:13;;;;;;;;;0.00;0.00;;;;;;;;5071014;28;11971;-75
2024/01/15 13:29:40;;;;;;;;;1.00;1.00;;;;;;;;5070105;28;10881;-75
2024/01/15 13:32:09;;;;;;;;;0.00;0.00;;;;;;;;5070250;28;11183;-75
2024/01/15 13:34:37;;;;;;;;;0.00;0.00;;;;;;;;5069408;28;10869;-74
2024/01/15 13:37:04;;;;;;;;;0.00;0.00;;;;;;;;5069700;28;10876;-75
2024/01/15 13:39:33;;;;;;;;;1.75;0.00;;;;;;;;5069704;28;10843;-79
2024/01/15 13:42:00;;;;;;;;;0.50;0.00;;;;;;;;5065471;28;10742;-75
2024/01/15 13:44:28;;;;;;;;;0.00;0.00;;;;;;;;5059628;28;10881;-83
2024/01/15 13:46:57;;;;;;;;;0.00;0.00;;;;;;;;5062506;28;10738;-76
2024/01/15 13:49:28;;;;;;;;;6.25;3.75;;;;;;;;5066189;28;10741;-75
2024/01/15 13:51:55;;;;;;;;;0.75;0.75;;;;;;;;5064829;28;11180;-75
2024/01/15 13:54:22;;;;;;;;;1.00;1.00;;;;;;;;5064565;28;10878;-75
2024/01/15 13:56:50;;;;;;;;;0.00;0.00;;;;;;;;5071608;28;10968;-75
2024/01/15 13:59:17;;;;;;;;;0.00;0.00;;;;;;;;5063965;28;10800;-76
2024/01/15 14:01:46;;;;;;;;;0.00;0.00;;;;;;;;5064907;28;10920;-75
2024/01/15 14:04:14;;;;;;;;;0.00;0.00;;;;;;;;5064936;28;10925;-74
2024/01/15 14:06:42;;;;;;;;;0.00;0.00;;;;;;;;5064961;28;10819;-76
2024/01/15 14:09:10;;;;;;;;;0.75;0.00;;;;;;;;5060951;28;10881;-74
2024/01/15 14:11:38;;;;;;;;;1.00;0.00;;;;;;;;5066043;28;10866;-75
2024/01/15 14:14:05;;;;;;;;;0.00;0.00;;;;;;;;5063932;28;10827;-76
2024/01/15 14:16:32;;;;;;;;;0.00;0.00;;;;;;;;5064504;28;11732;-75
2024/01/15 14:18:59;;;;;;;;;0.00;0.00;;;;;;;;5064773;28;10926;-75
2024/01/15 14:21:26;;;;;;;;;0.00;0.00;;;;;;;;5061560;28;11119;-75
2024/01/15 14:23:55;;;;;;;;;2.00;2.00;;;;;;;;5070786;28;11108;-75
2024/01/15 14:26:22;;;;;;;;;1.00;0.00;;;;;;;;5072431;28;11443;-73
2024/01/15 14:28:49;;;;;;;;;0.00;0.00;;;;;;;;5069920;28;11551;-76
2024/01/15 14:31:17;;;;;;;;;0.00;0.00;;;;;;;;5062828;28;12304;-74
2024/01/15 14:33:44;;;;;;;;;0.00;0.00;;;;;;;;5066673;28;11439;-74
2024/01/15 14:36:11;;;;;;;;;0.25;0.00;;;;;;;;5067773;28;11456;-78
2024/01/15 14:38:38;;;;;;;;;0.00;0.00;;;;;;;;5068487;28;11543;-74